Country Estates (222, 637) Station Data

Red Flag Warning: No
Fire Weather Zone: 250
SDGE Region: Ramona
Lat/Lon: 33.029/-116.793

Observations

Time Wind Speed/Gust Temp(F) RH Fuel Moist Fuel Temp(F) Dewpt(F) Tmax(F) Tmin(F) Accum Precip 10-min Precip SL Press(mb)
5/24 8:30am 29 6 G 10 68° 51% - - 49° 69.9° 58.1° - - -
5/24 8:20am 313 3 G 6 65° 59% - - 50° 69.9° 58.1° - - -
5/24 8:10am 181 2 G 5 64° 61% - - 50° 69.9° 58.1° - - -
5/24 8:00am 188 2 G 4 65° 58% - - 50° 69.9° 58.1° - - -
5/24 7:50am 73 5 G 9 66° 49% - - 46° 69.9° 58.1° - - -
5/24 7:40am 34 9 G 12 62° 58% - - 47° 69.9° 58.1° - - -
5/24 7:30am 42 7 G 11 60° 68% - - 49° 69.9° 58.1° - - -
5/24 7:20am 113 2 G 4 58° 73% - - 50° 69.9° 58.1° - - -
5/24 7:10am 194 5 G 13 60° 66% - - 49° 69.9° 58.3° - - -
5/24 7:00am 57 4 G 7 64° 50% - - 45° 69.9° 61° - - -
5/24 6:50am 32 1 G 3 62° 55% - - 46° 69.9° 61° - - -
5/24 6:40am 205 1 G 4 62° 54% - - 45° 69.9° 61° - - -
5/24 6:30am 244 1 G 4 64° 46% - - 43° 69.9° 61° - - -
5/24 6:20am 55 6 G 10 69° 33% - - 39° 69.9° 61° - - -
5/24 6:10am 42 10 G 12 67° 35% - - 39° 67.9° 61° - - -
5/24 6:00am 33 8 G 12 66° 39% - - 40° 67.1° 61° - - -
5/24 5:50am 4 1 G 4 62° 54% - - 45° 66.9° 61° - - -
5/24 5:40am 224 1 G 3 63° 54% - - 46° 66.9° 61° - - -
5/24 5:30am 343 1 G 3 62° 54% - - 45° 66.9° 61° - - -
5/24 5:20am 19 4 G 9 64° 46% - - 43° 66.9° 61° - - -
5/24 5:10am 41 10 G 10 65° 42% - - 42° 66.9° 61° - - -
5/24 5:00am 38 5 G 10 62° 53% - - 45° 66.9° 61° - - -
5/24 4:50am 301 1 G 2 62° 56% - - 47° 66.9° 61° - - -
5/24 4:40am 15 1 G 4 63° 55% - - 46° 66.9° 61° - - -
5/24 4:30am 54 2 G 5 63° 55% - - 47° 66.9° 61° - - -
5/24 4:20am 25 2 G 4 62° 58% - - 47° 66.9° 61° - - -
5/24 4:10am 6 1 G 2 62° 57% - - 47° 66.9° 61° - - -
5/24 4:00am 14 3 G 6 64° 52% - - 46° 66.9° 62.8° - - -
5/24 3:50am 38 4 G 6 64° 55% - - 48° 66.9° 62.8° - - -
5/24 3:40am 44 7 G 9 63° 56% - - 48° 66.9° 62.8° - - -
5/24 3:30am 28 4 G 7 64° 57% - - 48° 66.9° 62.8° - - -
5/24 3:20am 359 1 G 2 63° 59% - - 49° 66.9° 62.8° - - -
5/24 3:10am 351 0 G 1 64° 58% - - 49° 66.9° 63.2° - - -
5/24 3:00am 21 0 G 1 64° 58% - - 49° 66.9° 63.6° - - -
5/24 2:50am 0 0 G 0 64° 59% - - 49° 66.9° 63.6° - - -
5/24 2:40am 349 0 G 1 64° 58% - - 49° 66.9° 63.6° - - -
5/24 2:30am 343 1 G 2 65° 55% - - 48° 66.9° 63.6° - - -
5/24 2:20am 341 0 G 1 66° 53% - - 48° 66.9° 63.6° - - -
5/24 2:10am 348 0 G 1 66° 52% - - 48° 66.9° 63.6° - - -
5/24 2:00am 14 1 G 2 65° 56% - - 49° 66.9° 63.6° - - -
5/24 1:50am 349 0 G 3 64° 60% - - 50° 66.9° 63.6° - - -
5/24 1:40am 111 1 G 2 65° 60% - - 50° 66.9° 63.7° - - -
5/24 1:30am 39 0 G 1 64° 62% - - 51° 66.9° 63.7° - - -
5/24 1:20am 327 2 G 4 64° 61% - - 51° 66.9° 63.7° - - -
5/24 1:10am 265 1 G 4 65° 58% - - 50° 66.9° 64.9° - - -
5/24 1:00am 12 1 G 3 66° 58% - - 50° 66.9° 65° - - -
5/24 12:50am 6 2 G 3 65° 59% - - 51° 66.9° 65° - - -
5/24 12:40am 35 3 G 5 66° 58% - - 51° 66.9° 65.2° - - -
5/24 12:30am 38 3 G 5 66° 58% - - 51° 66.9° 65.5° - - -
5/24 12:20am 4 1 G 2 66° 57% - - 51° 66.9° 65.6° - - -
5/24 12:10am 350 1 G 2 67° 56% - - 51° 66.9° 66.5° - - -
5/24 12:00am 288 0 G 2 67° 56% - - 50° 91.4° 64.4° - - -
5/23 11:50pm 10 1 G 4 66° 55% - - 50° 91.4° 64.4° - - -
5/23 11:40pm 34 4 G 5 68° 52% - - 50° 91.4° 64.4° - - -
5/23 11:30pm 35 4 G 5 67° 54% - - 50° 91.4° 64.4° - - -
5/23 11:20pm 30 2 G 4 67° 53% - - 49° 91.4° 64.4° - - -
5/23 11:10pm 4 1 G 2 68° 49% - - 49° 91.4° 64.4° - - -
5/23 11:00pm 47 1 G 2 69° 48% - - 49° 91.4° 64.4° - - -
5/23 10:50pm 25 1 G 3 69° 48% - - 49° 91.4° 64.4° - - -
5/23 10:40pm 19 1 G 2 69° 50% - - 49° 91.4° 64.4° - - -
5/23 10:30pm 9 2 G 4 68° 52% - - 49° 91.4° 64.4° - - -
5/23 10:20pm 16 1 G 2 67° 52% - - 49° 91.4° 64.4° - - -
5/23 10:10pm 10 1 G 5 69° 49% - - 49° 91.4° 64.4° - - -
5/23 10:00pm 36 7 G 8 70° 48% - - 49° 91.4° 64.4° - - -
5/23 9:50pm 41 6 G 8 70° 49% - - 50° 91.4° 64.4° - - -
5/23 9:40pm 32 3 G 5 70° 50% - - 50° 91.4° 64.4° - - -
5/23 9:30pm 129 1 G 2 70° 50% - - 51° 91.4° 64.4° - - -
5/23 9:20pm 49 3 G 4 71° 48% - - 50° 91.4° 64.4° - - -
5/23 9:10pm 51 3 G 5 72° 46% - - 50° 91.4° 64.4° - - -
5/23 9:00pm 58 2 G 3 72° 47% - - 50° 91.4° 64.4° - - -
5/23 8:50pm 59 2 G 4 72° 47% - - 51° 91.4° 64.4° - - -
5/23 8:40pm 106 1 G 3 73° 46% - - 51° 91.4° 64.4° - - -
5/23 8:30pm 67 2 G 5 73° 46% - - 50° 91.4° 64.4° - - -
5/23 8:20pm 47 3 G 5 73° 45% - - 51° 91.4° 64.4° - - -
5/23 8:10pm 15 2 G 3 74° 43% - - 50° 91.4° 64.4° - - -
5/23 8:00pm 39 4 G 6 74° 42% - - 50° 91.4° 64.4° - - -
5/23 7:50pm 360 1 G 4 75° 42% - - 50° 91.4° 64.4° - - -
5/23 7:40pm 300 2 G 4 75° 41% - - 50° 91.4° 64.4° - - -
5/23 7:30pm 273 5 G 7 76° 39% - - 50° 91.4° 64.4° - - -
5/23 7:20pm 231 2 G 6 78° 37% - - 49° 91.4° 64.4° - - -
5/23 7:10pm 256 5 G 8 79° 35% - - 49° 91.4° 64.4° - - -
5/23 7:00pm 246 6 G 9 80° 32% - - 48° 91.4° 64.4° - - -
5/23 6:50pm 237 6 G 11 82° 31% - - 48° 91.4° 64.4° - - -
5/23 6:40pm 243 6 G 11 83° 30% - - 48° 91.4° 64.4° - - -
5/23 6:30pm 233 5 G 10 84° 29% - - 48° 91.4° 64.4° - - -
5/23 6:20pm 226 4 G 8 84° 29% - - 48° 91.4° 64.4° - - -
5/23 6:10pm 235 5 G 9 85° 28% - - 48° 91.4° 64.4° - - -
5/23 6:00pm 229 4 G 8 86° 27% - - 48° 91.4° 64.4° - - -
5/23 5:50pm 257 4 G 8 86° 27% - - 48° 91.4° 64.4° - - -
5/23 5:40pm 266 5 G 7 86° 25% - - 46° 91.4° 64.4° - - -
5/23 5:30pm 249 3 G 6 86° 23% - - 44° 91.4° 64.4° - - -
5/23 5:20pm 248 5 G 9 86° 22% - - 43° 91.4° 64.4° - - -
5/23 5:10pm 225 3 G 6 86° 22% - - 43° 91.4° 64.4° - - -
5/23 5:00pm 234 4 G 11 85° 22% - - 42° 91.4° 64.4° - - -
5/23 4:50pm 239 5 G 10 85° 22% - - 42° 91.4° 64.4° - - -
5/23 4:40pm 239 4 G 9 86° 21% - - 42° 91.4° 64.4° - - -
5/23 4:30pm 241 3 G 10 85° 21% - - 41° 91.4° 64.4° - - -
5/23 4:20pm 228 4 G 10 85° 21% - - 41° 91.4° 64.4° - - -
5/23 4:10pm 219 4 G 9 84° 22% - - 41° 91.4° 64.4° - - -
5/23 4:00pm 223 4 G 10 84° 24% - - 43° 91.4° 64.4° - - -
5/23 3:50pm 228 5 G 12 83° 24% - - 42° 91.4° 64.4° - - -
5/23 3:40pm 228 4 G 10 84° 22% - - 41° 91.4° 64.4° - - -
5/23 3:30pm 230 6 G 13 83° 28% - - 46° 91.4° 64.4° - - -
5/23 3:20pm 249 6 G 14 82° 34% - - 51° 91.4° 64.4° - - -
5/23 3:10pm 240 6 G 13 82° 35% - - 52° 91.4° 64.4° - - -
5/23 3:00pm 249 7 G 13 81° 38% - - 53° 91.4° 64.4° - - -
5/23 2:50pm 256 9 G 15 81° 39% - - 54° 91.4° 64.4° - - -
5/23 2:40pm 245 8 G 13 81° 39% - - 54° 91.4° 64.4° - - -
5/23 2:30pm 262 8 G 15 81° 39% - - 54° 91.4° 64.4° - - -
5/23 2:20pm 240 7 G 12 82° 37% - - 53° 91.4° 64.4° - - -
5/23 2:10pm 247 7 G 12 84° 35% - - 53° 91.4° 64.4° - - -
5/23 2:00pm 234 5 G 11 84° 34% - - 53° 91.4° 64.4° - - -
5/23 1:50pm 236 6 G 13 84° 34% - - 53° 91.4° 64.4° - - -
5/23 1:40pm 242 6 G 11 83° 35% - - 53° 91.4° 64.4° - - -
5/23 1:30pm 257 7 G 12 83° 35% - - 53° 91.4° 64.4° - - -
5/23 1:20pm 249 7 G 13 84° 33% - - 51° 91.4° 64.4° - - -
5/23 1:10pm 238 7 G 12 85° 31% - - 51° 91.4° 64.4° - - -
5/23 1:00pm 237 7 G 15 86° 29% - - 50° 91.4° 64.4° - - -
5/23 12:50pm 218 6 G 14 88° 28% - - 50° 91.4° 64.4° - - -
5/23 12:40pm 199 7 G 16 89° 26% - - 50° 91.4° 64.4° - - -
5/23 12:30pm 202 8 G 17 90° 22% - - 45° 91.4° 64.4° - - -
5/23 12:20pm 214 6 G 12 89° 21% - - 45° 91.4° 64.4° - - -
5/23 12:10pm 216 6 G 11 90° 20% - - 44° 91.4° 64.4° - - -
5/23 12:00pm 202 7 G 13 90° 18% - - 42° 91.4° 64.4° - - -
5/23 11:50am 200 6 G 11 91° 16% - - 38° 91.4° 64.4° - - -
5/23 11:40am 185 5 G 10 90° 16% - - 38° 90.6° 64.4° - - -
5/23 11:30am 202 3 G 9 90° 16% - - 38° 90.6° 64.4° - - -
5/23 11:20am 191 4 G 9 89° 16% - - 37° 89.7° 64.4° - - -
5/23 11:10am 189 3 G 7 88° 16% - - 36° 89.2° 64.4° - - -
5/23 11:00am 207 3 G 8 87° 16% - - 36° 88.3° 64.4° - - -
5/23 10:50am 170 3 G 8 87° 16% - - 35° 87.5° 64.4° - - -
5/23 10:40am 204 3 G 7 87° 16% - - 36° 87.5° 64.4° - - -
5/23 10:30am 201 2 G 6 86° 18% - - 37° 86.3° 64.4° - - -
5/23 10:20am 188 2 G 4 85° 20% - - 39° 85.2° 64.4° - - -
5/23 10:10am 336 1 G 2 83° 21% - - 39° 83.7° 64.4° - - -
5/23 10:00am 181 2 G 4 82° 21% - - 39° 82.2° 64.4° - - -
5/23 9:50am 250 1 G 3 81° 23% - - 40° 81.3° 64.4° - - -
5/23 9:40am 207 1 G 2 79° 23% - - 39° 79.9° 64.4° - - -
5/23 9:30am 225 2 G 4 78° 25% - - 40° 78.7° 64.4° - - -
5/23 9:20am 215 2 G 5 77° 30% - - 44° 78° 64.4° - - -
5/23 9:10am 207 2 G 5 77° 32% - - 45° 78° 64.4° - - -
5/23 9:00am 220 1 G 5 77° 29% - - 43° 78° 64.4° - - -
5/23 8:50am 242 1 G 2 76° 30% - - 43° 77.2° 64.4° - - -
5/23 8:40am 159 1 G 2 76° 31% - - 42° 77.2° 64.4° - - -
5/23 8:30am 175 1 G 3 75° 33% - - 44° 77.2° 64.4° - - -
5/23 8:20am 218 1 G 3 76° 29% - - 41° 77.2° 64.4° - - -
5/23 8:10am 254 0 G 3 76° 28% - - 41° 77.2° 64.4° - - -
5/23 8:00am 0 0 G 0 74° 37% - - 46° 74.3° 64.4° - - -
5/23 7:50am 24 0 G 1 73° 36% - - 45° 73.6° 64.4° - - -
5/23 7:40am 133 0 G 1 72° 36% - - 44° 73.1° 64.4° - - -
5/23 7:30am 186 1 G 2 71° 35% - - 42° 72.1° 64.4° - - -
5/23 7:20am 218 1 G 2 72° 37% - - 44° 72.1° 64.4° - - -
5/23 7:10am 8 2 G 4 71° 37% - - 44° 71.5° 64.4° - - -
5/23 7:00am 34 4 G 6 70° 38% - - 43° 71° 64.4° - - -
5/23 6:50am 35 5 G 6 69° 36% - - 41° 70.4° 64.4° - - -
5/23 6:40am 40 3 G 6 69° 34% - - 39° 70.4° 64.4° - - -
5/23 6:30am 23 2 G 5 67° 38% - - 40° 70.4° 64.4° - - -
5/23 6:20am 36 5 G 7 68° 36% - - 39° 70.4° 64.4° - - -
5/23 6:10am 43 6 G 8 69° 33% - - 38° 70.4° 64.4° - - -
5/23 6:00am 43 6 G 7 70° 31% - - 38° 70.4° 64.4° - - -